createdAt,value
2022-08-24T00:00:37.827Z,40.25
2022-08-24T00:03:07.241Z,35.83
2022-08-24T00:05:35.037Z,44.97
2022-08-24T00:08:02.869Z,36.72
2022-08-24T00:10:30.516Z,34.60
2022-08-24T00:12:58.578Z,38.58
2022-08-24T00:15:26.126Z,30.70
2022-08-24T00:17:53.648Z,35.92
2022-08-24T00:20:22.504Z,43.65
2022-08-24T00:22:50.486Z,43.33
2022-08-24T00:25:19.884Z,35.42
2022-08-24T00:27:48.128Z,29.23
2022-08-24T00:30:19.205Z,33.30
2022-08-24T00:32:48.362Z,39.47
2022-08-24T00:35:18.219Z,41.38
2022-08-24T00:37:48.325Z,34.53
2022-08-24T00:40:19.447Z,32.85
2022-08-24T00:42:47.918Z,32.28
2022-08-24T00:45:17.209Z,36.15
2022-08-24T00:47:48.146Z,43.63
2022-08-24T00:50:23.047Z,52.67
2022-08-24T00:52:56.647Z,51.85
2022-08-24T00:55:30.523Z,57.75
2022-08-24T00:58:02.309Z,57.15
2022-08-24T01:00:34.990Z,55.92
2022-08-24T01:03:06.833Z,58.55
2022-08-24T01:05:38.088Z,59.75
2022-08-24T01:08:08.938Z,61.72
2022-08-24T01:10:41.045Z,59.88
2022-08-24T01:13:12.135Z,44.05
2022-08-24T01:15:42.741Z,39.05
2022-08-24T01:18:33.527Z,38.97
2022-08-24T01:21:16.315Z,36.25
2022-08-24T01:23:47.938Z,30.92
2022-08-24T01:26:19.183Z,30.75
2022-08-24T01:28:50.148Z,35.50
2022-08-24T01:31:22.093Z,38.67
2022-08-24T01:33:51.328Z,36.35
2022-08-24T01:36:28.463Z,39.50
2022-08-24T01:39:02.167Z,41.75
2022-08-24T01:41:29.709Z,55.28
2022-08-24T01:43:58.933Z,41.47
2022-08-24T01:46:26.718Z,42.95
2022-08-24T01:48:54.324Z,43.85
2022-08-24T01:51:22.007Z,47.08
2022-08-24T01:53:49.899Z,43.72
2022-08-24T01:56:18.759Z,44.08
2022-08-24T01:58:47.272Z,47.97
2022-08-24T02:01:16.309Z,45.92
2022-08-24T02:03:44.040Z,40.13
2022-08-24T02:06:11.602Z,52.15
2022-08-24T02:08:39.783Z,50.40
2022-08-24T02:11:09.299Z,41.45
2022-08-24T02:13:39.145Z,38.30
2022-08-24T02:16:07.486Z,35.85
2022-08-24T02:18:35.430Z,38.75
2022-08-24T02:21:03.046Z,43.28
2022-08-24T02:23:30.693Z,38.65
2022-08-24T02:25:58.206Z,35.45
2022-08-24T02:28:25.711Z,35.42
2022-08-24T02:30:54.602Z,35.97
2022-08-24T02:33:23.546Z,36.30
2022-08-24T02:35:51.147Z,38.78
2022-08-24T02:38:18.711Z,35.88
2022-08-24T02:40:46.588Z,45.55
2022-08-24T02:43:14.250Z,44.97
2022-08-24T02:45:47.190Z,49.60
2022-08-24T02:48:19.567Z,57.13
2022-08-24T02:50:49.203Z,53.92
2022-08-24T02:53:18.810Z,45.53
2022-08-24T02:55:46.623Z,44.10
2022-08-24T02:58:15.709Z,39.90
2022-08-24T03:00:45.048Z,38.03
2022-08-24T03:03:13.052Z,35.17
2022-08-24T03:05:42.034Z,39.33
2022-08-24T03:08:09.537Z,34.15
2022-08-24T03:10:37.096Z,32.63
2022-08-24T03:13:05.233Z,34.83
2022-08-24T03:15:33.065Z,31.38
2022-08-24T03:18:00.747Z,36.20
2022-08-24T03:20:28.317Z,36.70
2022-08-24T03:22:57.313Z,39.95
2022-08-24T03:25:26.567Z,57.72
2022-08-24T03:27:54.802Z,61.28
2022-08-24T03:30:23.769Z,54.50
2022-08-24T03:32:52.449Z,45.20
2022-08-24T03:35:21.789Z,44.60
2022-08-24T03:37:49.421Z,47.65
2022-08-24T03:40:22.915Z,33.05
2022-08-24T03:42:52.906Z,33.72
2022-08-24T03:45:21.469Z,37.47
2022-08-24T03:47:49.389Z,33.28
2022-08-24T03:50:16.898Z,42.20
2022-08-24T03:52:44.403Z,38.42
2022-08-24T03:55:13.232Z,39.35
2022-08-24T03:57:42.126Z,33.70
2022-08-24T04:00:13.542Z,43.40
2022-08-24T04:02:41.118Z,57.78
2022-08-24T04:05:09.643Z,43.65
2022-08-24T04:07:37.130Z,45.78
2022-08-24T04:10:05.007Z,55.28
2022-08-24T04:12:32.507Z,56.72
2022-08-24T04:15:01.594Z,60.17
2022-08-24T04:17:30.267Z,58.92
2022-08-24T04:20:00.900Z,58.58
2022-08-24T04:22:30.473Z,60.08
2022-08-24T04:24:58.547Z,63.80
2022-08-24T04:27:26.160Z,57.95
2022-08-24T04:29:53.857Z,66.13
2022-08-24T04:32:22.696Z,61.83
2022-08-24T04:34:50.192Z,57.15
2022-08-24T04:37:18.351Z,71.60
2022-08-24T04:39:53.211Z,80.15
2022-08-24T04:42:20.911Z,71.72
2022-08-24T04:44:48.403Z,85.65
2022-08-24T04:47:15.929Z,107.13
2022-08-24T04:49:44.832Z,94.97
2022-08-24T04:52:12.381Z,60.15
2022-08-24T04:54:39.885Z,124.15
2022-08-24T04:57:07.397Z,134.38
2022-08-24T04:59:34.903Z,113.53
2022-08-24T05:02:02.475Z,108.95
2022-08-24T05:04:30.076Z,124.78
2022-08-24T05:07:00.182Z,127.70
2022-08-24T05:09:27.679Z,115.35
2022-08-24T05:11:55.571Z,105.38
2022-08-24T05:14:28.012Z,142.07
2022-08-24T05:16:56.297Z,75.15
2022-08-24T05:19:24.595Z,119.28
2022-08-24T05:21:52.570Z,55.20
2022-08-24T05:24:21.434Z,24.58
2022-08-24T05:26:48.990Z,25.30
2022-08-24T05:29:18.942Z,41.78
2022-08-24T05:31:47.363Z,48.35
2022-08-24T05:34:15.486Z,47.03
2022-08-24T05:36:43.893Z,30.10
2022-08-24T05:39:13.775Z,24.00
2022-08-24T05:41:45.271Z,27.98
2022-08-24T05:44:14.044Z,26.27
2022-08-24T05:46:41.702Z,28.48
2022-08-24T05:49:09.452Z,24.80
2022-08-24T05:51:37.663Z,23.42
2022-08-24T05:54:06.339Z,21.33
2022-08-24T05:56:33.840Z,15.35
2022-08-24T05:59:03.838Z,20.60
2022-08-24T06:01:31.558Z,17.35
2022-08-24T06:04:00.112Z,16.85
2022-08-24T06:06:28.231Z,18.83
2022-08-24T06:08:57.994Z,18.67
2022-08-24T06:11:30.764Z,16.10
2022-08-24T06:14:01.642Z,17.23
2022-08-24T06:16:30.951Z,15.27
2022-08-24T06:18:58.465Z,20.65
2022-08-24T06:21:28.702Z,14.98
2022-08-24T06:23:57.064Z,20.95
2022-08-24T06:26:42.282Z,13.20
2022-08-24T06:29:10.875Z,12.38
2022-08-24T06:31:42.377Z,20.48
2022-08-24T06:34:12.047Z,12.13
2022-08-24T06:36:40.231Z,9.70
2022-08-24T06:39:08.620Z,9.80
2022-08-24T06:41:38.140Z,9.32
2022-08-24T06:44:06.706Z,9.48
2022-08-24T06:46:36.207Z,11.07
2022-08-24T06:49:05.388Z,10.45
2022-08-24T06:51:33.426Z,10.73
2022-08-24T06:54:01.349Z,10.50
2022-08-24T06:56:28.873Z,10.60
2022-08-24T06:58:56.636Z,10.32
2022-08-24T07:01:26.011Z,8.80
2022-08-24T07:03:53.794Z,9.38
2022-08-24T07:06:23.143Z,8.65
2022-08-24T07:08:51.665Z,8.68
2022-08-24T07:11:21.980Z,7.93
2022-08-24T07:13:50.868Z,10.02
2022-08-24T07:16:20.125Z,10.50
2022-08-24T07:18:50.260Z,10.07
2022-08-24T07:21:19.455Z,10.15
2022-08-24T07:23:49.103Z,9.65
2022-08-24T07:26:21.793Z,8.93
2022-08-24T07:28:50.165Z,9.48
2022-08-24T07:31:17.807Z,13.13
2022-08-24T07:33:45.727Z,9.98
2022-08-24T07:36:17.055Z,9.85
2022-08-24T07:38:53.111Z,11.00
2022-08-24T07:41:56.649Z,10.43
2022-08-24T07:44:15.455Z,9.65
2022-08-24T07:46:43.658Z,8.90
2022-08-24T07:49:29.353Z,11.10
2022-08-24T07:51:59.880Z,11.35
2022-08-24T07:54:29.687Z,12.15
2022-08-24T07:56:59.958Z,10.57
2022-08-24T07:59:27.475Z,11.07
2022-08-24T08:01:55.028Z,11.13
2022-08-24T08:04:25.150Z,11.55
2022-08-24T08:06:52.733Z,11.13
2022-08-24T08:09:20.317Z,11.30
2022-08-24T08:11:49.296Z,11.57
2022-08-24T08:14:16.827Z,11.80
2022-08-24T08:16:44.384Z,11.57
2022-08-24T08:19:11.948Z,12.05
2022-08-24T08:22:00.547Z,15.40
2022-08-24T08:24:28.308Z,13.93
2022-08-24T08:26:59.233Z,11.73
2022-08-24T08:29:27.217Z,10.70
2022-08-24T08:31:55.500Z,10.27
2022-08-24T08:34:23.058Z,13.38
2022-08-24T08:36:51.242Z,12.07
2022-08-24T08:39:20.745Z,9.88
2022-08-24T08:42:14.904Z,10.35
2022-08-24T08:44:53.179Z,12.75
2022-08-24T08:47:45.550Z,13.52
2022-08-24T08:50:16.960Z,8.52
2022-08-24T08:53:25.454Z,9.52
2022-08-24T08:56:03.766Z,12.73
2022-08-24T08:58:57.692Z,12.82
2022-08-24T09:01:36.210Z,9.30
2022-08-24T09:04:35.198Z,10.98
2022-08-24T09:07:16.628Z,10.48
2022-08-24T09:10:20.954Z,9.88
2022-08-24T09:13:02.783Z,9.45
2022-08-24T09:15:45.695Z,8.48
2022-08-24T09:18:26.732Z,8.18
2022-08-24T09:21:10.227Z,11.90
2022-08-24T09:23:52.560Z,8.80
2022-08-24T09:26:27.408Z,10.60
2022-08-24T09:29:05.419Z,8.88
2022-08-24T09:31:50.977Z,7.80
2022-08-24T09:34:28.639Z,9.48
2022-08-24T09:37:04.561Z,10.43
2022-08-24T09:39:53.627Z,8.88
2022-08-24T09:42:50.773Z,11.70
2022-08-24T09:45:37.014Z,10.43
2022-08-24T09:48:34.104Z,7.88
2022-08-24T09:51:24.532Z,8.85
2022-08-24T09:54:24.594Z,8.77
2022-08-24T09:57:13.750Z,8.95
2022-08-24T09:59:59.385Z,7.28
2022-08-24T10:02:45.871Z,8.02
2022-08-24T10:05:27.071Z,9.43
2022-08-24T10:08:05.062Z,9.48
2022-08-24T10:10:42.710Z,8.68
2022-08-24T10:13:24.114Z,10.80
2022-08-24T10:16:07.250Z,9.88
2022-08-24T10:18:46.013Z,8.35
2022-08-24T10:21:24.634Z,7.10
2022-08-24T10:24:07.896Z,8.25
2022-08-24T10:26:49.935Z,7.28
2022-08-24T10:29:33.698Z,9.38
2022-08-24T10:32:15.129Z,8.85
2022-08-24T10:35:01.149Z,10.23
2022-08-24T10:38:33.857Z,6.32
2022-08-24T10:41:21.385Z,8.65
2022-08-24T10:44:08.668Z,8.65
2022-08-24T10:46:49.026Z,7.45
2022-08-24T10:49:57.790Z,6.50
2022-08-24T10:52:54.056Z,8.02
2022-08-24T10:55:26.687Z,7.55
2022-08-24T10:58:08.174Z,8.90
2022-08-24T11:00:36.202Z,8.15
2022-08-24T11:03:13.076Z,8.80
2022-08-24T11:05:47.886Z,8.15
2022-08-24T11:08:21.980Z,9.65
2022-08-24T11:11:08.958Z,6.75
2022-08-24T11:13:50.245Z,7.13
2022-08-24T11:16:25.344Z,6.88
2022-08-24T11:18:55.812Z,7.38
2022-08-24T11:21:37.130Z,7.57
2022-08-24T11:24:08.571Z,6.18
2022-08-24T11:26:53.666Z,6.10
2022-08-24T11:29:27.330Z,8.25
2022-08-24T11:31:55.019Z,6.80
2022-08-24T11:34:33.584Z,7.72
2022-08-24T11:37:01.348Z,7.78
2022-08-24T11:39:33.763Z,9.85
2022-08-24T11:42:12.754Z,8.10
2022-08-24T11:44:49.685Z,9.55
2022-08-24T11:47:45.111Z,8.70
2022-08-24T11:50:25.333Z,8.00
2022-08-24T11:53:03.835Z,8.10
2022-08-24T11:55:47.449Z,7.43
2022-08-24T11:58:28.108Z,7.82
2022-08-24T12:01:05.878Z,8.38
2022-08-24T12:03:51.885Z,9.55
2022-08-24T12:06:32.521Z,7.80
2022-08-24T12:09:07.017Z,8.60
2022-08-24T12:11:41.554Z,8.35
2022-08-24T12:14:17.409Z,8.32
2022-08-24T12:16:55.836Z,9.95
2022-08-24T12:19:28.470Z,8.07
2022-08-24T12:21:58.942Z,8.38
2022-08-24T12:24:32.046Z,7.70
2022-08-24T12:27:04.278Z,6.75
2022-08-24T12:29:37.650Z,8.45
2022-08-24T12:32:11.225Z,9.02
2022-08-24T12:34:50.054Z,8.05
2022-08-24T12:37:23.188Z,7.88
2022-08-24T12:39:58.458Z,8.23
2022-08-24T12:42:33.858Z,8.90
2022-08-24T12:45:06.716Z,9.32
2022-08-24T12:47:43.575Z,9.05
2022-08-24T12:50:14.946Z,9.23
2022-08-24T12:53:12.154Z,9.38
2022-08-24T12:55:58.392Z,9.65
2022-08-24T12:58:54.529Z,7.82
2022-08-24T13:01:29.568Z,9.25
2022-08-24T13:04:09.236Z,10.40
2022-08-24T13:06:43.527Z,8.05
2022-08-24T13:09:17.911Z,9.02
2022-08-24T13:11:45.546Z,8.80
2022-08-24T13:14:20.905Z,8.55
2022-08-24T13:16:52.775Z,9.32
2022-08-24T13:19:38.599Z,8.25
2022-08-24T13:22:38.333Z,9.60
2022-08-24T13:25:25.550Z,8.38
2022-08-24T13:28:08.410Z,10.52
2022-08-24T13:31:19.205Z,9.23
2022-08-24T13:33:49.751Z,8.95
2022-08-24T13:36:55.915Z,9.43
2022-08-24T13:39:47.325Z,7.25
2022-08-24T13:42:30.318Z,8.68
2022-08-24T13:45:22.868Z,8.23
2022-08-24T13:48:04.027Z,7.90
2022-08-24T13:50:37.839Z,7.90
2022-08-24T13:53:30.858Z,7.82
2022-08-24T13:56:33.716Z,8.02
2022-08-24T13:59:09.650Z,9.70
2022-08-24T14:01:49.761Z,9.60
2022-08-24T14:04:32.918Z,9.00
2022-08-24T14:07:07.715Z,7.80
2022-08-24T14:09:47.118Z,9.23
2022-08-24T14:12:35.278Z,9.45
2022-08-24T14:15:19.136Z,7.10
2022-08-24T14:17:54.078Z,7.47
2022-08-24T14:20:44.051Z,10.88
2022-08-24T14:23:27.869Z,13.30
2022-08-24T14:26:28.706Z,11.45
2022-08-24T14:29:31.583Z,11.68
2022-08-24T14:32:27.808Z,13.93
2022-08-24T14:35:04.244Z,17.55
2022-08-24T14:37:56.788Z,15.18
2022-08-24T14:40:35.047Z,15.73
2022-08-24T14:43:30.047Z,16.17
2022-08-24T14:46:12.215Z,15.93
2022-08-24T14:48:49.119Z,13.48
2022-08-24T14:51:34.975Z,15.65
2022-08-24T14:54:17.043Z,15.70
2022-08-24T14:56:56.922Z,14.65
2022-08-24T14:59:38.819Z,18.10
2022-08-24T15:02:43.939Z,14.43
2022-08-24T15:05:22.237Z,16.83
2022-08-24T15:07:56.956Z,15.73
2022-08-24T15:10:28.758Z,16.55
2022-08-24T15:13:03.525Z,16.48
2022-08-24T15:15:36.223Z,19.02
2022-08-24T15:18:15.622Z,15.90
2022-08-24T15:21:04.023Z,15.07
2022-08-24T15:23:46.463Z,19.58
2022-08-24T15:26:19.942Z,17.70
2022-08-24T15:28:56.569Z,18.40
2022-08-24T15:31:29.023Z,18.92
2022-08-24T15:34:00.156Z,17.52
2022-08-24T15:36:30.044Z,19.00
2022-08-24T15:38:58.040Z,18.05
2022-08-24T15:41:30.897Z,17.88
2022-08-24T15:44:00.998Z,17.27
2022-08-24T15:46:32.844Z,13.98
2022-08-24T15:49:05.374Z,20.27
2022-08-24T15:51:44.655Z,15.07
2022-08-24T15:54:30.007Z,14.38
2022-08-24T15:57:00.636Z,15.52
2022-08-24T15:59:31.772Z,17.13
2022-08-24T16:02:33.269Z,18.02
2022-08-24T16:05:14.331Z,19.30
2022-08-24T16:08:07.563Z,13.48
2022-08-24T16:10:39.116Z,18.38
2022-08-24T16:13:29.369Z,18.77
2022-08-24T16:16:03.440Z,16.05
2022-08-24T16:18:49.033Z,17.15
2022-08-24T16:21:22.374Z,17.65
2022-08-24T16:23:56.622Z,20.58
2022-08-24T16:26:28.965Z,18.45
2022-08-24T16:28:57.545Z,16.92
2022-08-24T16:31:45.151Z,13.57
2022-08-24T16:34:21.144Z,16.75
2022-08-24T16:36:50.607Z,16.80
2022-08-24T16:39:18.166Z,16.73
2022-08-24T16:41:45.751Z,20.30
2022-08-24T16:44:13.556Z,16.73
2022-08-24T16:46:41.363Z,19.38
2022-08-24T16:49:12.714Z,17.15
2022-08-24T16:51:45.156Z,16.85
2022-08-24T16:54:14.882Z,16.35
2022-08-24T16:56:43.117Z,17.45
2022-08-24T16:59:25.171Z,16.17
2022-08-24T17:01:52.741Z,18.35
2022-08-24T17:04:20.474Z,15.80
2022-08-24T17:06:49.766Z,17.20
2022-08-24T17:09:20.287Z,17.27
2022-08-24T17:11:48.023Z,16.83
2022-08-24T17:14:17.040Z,17.98
2022-08-24T17:16:44.809Z,17.02
2022-08-24T17:19:15.436Z,16.75
2022-08-24T17:21:45.538Z,20.10
2022-08-24T17:24:13.381Z,15.32
2022-08-24T17:26:44.937Z,17.58
2022-08-24T17:29:18.433Z,15.88
2022-08-24T17:31:49.721Z,16.48
2022-08-24T17:34:17.931Z,16.38
2022-08-24T17:36:46.183Z,18.10
2022-08-24T17:39:15.368Z,14.50
2022-08-24T17:41:44.607Z,14.18
2022-08-24T17:44:20.970Z,15.90
2022-08-24T17:46:50.352Z,15.23
2022-08-24T17:49:18.321Z,14.90
2022-08-24T17:51:45.939Z,14.68
2022-08-24T17:54:13.589Z,15.10
2022-08-24T17:56:41.460Z,14.93
2022-08-24T17:59:23.522Z,15.35
2022-08-24T18:01:52.187Z,16.88
2022-08-24T18:04:20.942Z,15.65
2022-08-24T18:06:49.372Z,14.38
2022-08-24T18:09:28.718Z,13.90
2022-08-24T18:11:57.455Z,15.15
2022-08-24T18:14:26.751Z,14.35
2022-08-24T18:16:57.364Z,14.55
2022-08-24T18:19:26.426Z,14.88
2022-08-24T18:21:54.299Z,14.65
2022-08-24T18:24:21.916Z,14.48
2022-08-24T18:26:50.238Z,17.80
2022-08-24T18:29:20.909Z,17.02
2022-08-24T18:31:50.454Z,16.23
2022-08-24T18:34:21.725Z,16.38
2022-08-24T18:36:49.638Z,16.08
2022-08-24T18:39:17.287Z,15.77
2022-08-24T18:41:49.203Z,17.65
2022-08-24T18:44:19.495Z,19.52
2022-08-24T18:46:47.817Z,19.08
2022-08-24T18:49:17.123Z,24.85
2022-08-24T18:51:45.234Z,20.70
2022-08-24T18:54:16.385Z,23.15
2022-08-24T18:56:45.256Z,37.55
2022-08-24T18:59:15.083Z,47.30
2022-08-24T19:02:01.675Z,62.95
2022-08-24T19:04:33.499Z,58.55
2022-08-24T19:07:01.613Z,77.10
2022-08-24T19:09:33.984Z,100.97
2022-08-24T19:12:02.348Z,88.10
2022-08-24T19:14:29.836Z,105.88
2022-08-24T19:16:57.722Z,89.28
2022-08-24T19:19:25.232Z,91.78
2022-08-24T19:21:54.980Z,79.03
2022-08-24T19:24:26.203Z,81.72
2022-08-24T19:26:54.009Z,111.05
2022-08-24T19:29:38.919Z,91.18
2022-08-24T19:32:22.047Z,95.00
2022-08-24T19:34:50.310Z,78.15
2022-08-24T19:37:19.655Z,49.50
2022-08-24T19:39:47.799Z,62.90
2022-08-24T19:42:17.162Z,54.42
2022-08-24T19:45:02.401Z,41.97
2022-08-24T19:47:34.208Z,39.50
2022-08-24T19:50:02.296Z,37.58
2022-08-24T19:52:33.559Z,41.60
2022-08-24T19:55:01.978Z,38.45
2022-08-24T19:57:36.281Z,37.85
2022-08-24T20:00:20.193Z,41.67
2022-08-24T20:02:48.955Z,38.13
2022-08-24T20:05:17.917Z,42.22
2022-08-24T20:07:47.717Z,42.58
2022-08-24T20:10:17.306Z,44.17
2022-08-24T20:12:44.834Z,40.58
2022-08-24T20:15:13.309Z,53.42
2022-08-24T20:17:41.410Z,56.00
2022-08-24T20:20:11.798Z,47.80
2022-08-24T20:22:39.395Z,47.85
2022-08-24T20:25:09.304Z,54.38
2022-08-24T20:27:37.356Z,48.75
2022-08-24T20:30:06.321Z,48.60
2022-08-24T20:32:33.859Z,61.63
2022-08-24T20:35:02.585Z,49.08
2022-08-24T20:37:32.828Z,45.67
2022-08-24T20:40:01.302Z,43.97
2022-08-24T20:42:31.627Z,39.00
2022-08-24T20:45:00.391Z,42.15
2022-08-24T20:47:28.154Z,38.38
2022-08-24T20:49:55.976Z,41.55
2022-08-24T20:52:23.467Z,41.45
2022-08-24T20:54:50.972Z,34.45
2022-08-24T20:57:21.399Z,40.17
2022-08-24T20:59:50.237Z,36.35
2022-08-24T21:02:17.751Z,45.53
2022-08-24T21:04:45.446Z,41.15
2022-08-24T21:07:13.500Z,37.00
2022-08-24T21:09:41.236Z,42.28
2022-08-24T21:12:09.221Z,46.85
2022-08-24T21:14:36.758Z,38.63
2022-08-24T21:17:06.736Z,38.35
2022-08-24T21:19:34.404Z,36.33
2022-08-24T21:22:02.147Z,40.35
2022-08-24T21:24:29.666Z,44.00
2022-08-24T21:26:57.187Z,35.67
2022-08-24T21:29:24.701Z,41.95
2022-08-24T21:32:10.098Z,39.28
2022-08-24T21:34:41.860Z,37.85
2022-08-24T21:37:10.579Z,35.50
2022-08-24T21:39:38.382Z,35.90
2022-08-24T21:42:06.470Z,36.30
2022-08-24T21:44:34.144Z,34.70
2022-08-24T21:47:03.627Z,34.80
2022-08-24T21:49:31.294Z,37.65
2022-08-24T21:52:00.128Z,36.92
2022-08-24T21:54:27.675Z,35.47
2022-08-24T21:56:55.262Z,33.95
2022-08-24T21:59:22.923Z,33.60
2022-08-24T22:01:50.478Z,36.10
2022-08-24T22:04:18.194Z,35.75
2022-08-24T22:06:45.791Z,35.13
2022-08-24T22:09:14.872Z,35.83
2022-08-24T22:11:42.716Z,35.47
2022-08-24T22:14:10.355Z,35.15
2022-08-24T22:16:38.043Z,40.33
2022-08-24T22:19:05.875Z,39.15
2022-08-24T22:21:36.176Z,34.92
2022-08-24T22:24:04.738Z,41.05
2022-08-24T22:26:34.142Z,41.42
2022-08-24T22:29:02.433Z,38.45
2022-08-24T22:31:32.833Z,41.03
2022-08-24T22:34:02.862Z,40.00
2022-08-24T22:36:30.910Z,40.55
2022-08-24T22:38:59.805Z,46.63
2022-08-24T22:41:28.140Z,41.63
2022-08-24T22:44:19.864Z,35.47
2022-08-24T22:46:47.844Z,39.05
2022-08-24T22:49:15.573Z,47.63
2022-08-24T22:51:43.793Z,43.33
2022-08-24T22:54:11.972Z,39.58
2022-08-24T22:56:42.816Z,43.72
2022-08-24T22:59:15.995Z,41.58
2022-08-24T23:01:45.726Z,43.35
2022-08-24T23:04:15.712Z,47.35
2022-08-24T23:06:43.681Z,43.75
2022-08-24T23:09:12.029Z,47.25
2022-08-24T23:11:40.126Z,49.47
2022-08-24T23:14:09.037Z,45.33
2022-08-24T23:16:40.671Z,47.20
2022-08-24T23:19:26.515Z,43.05
2022-08-24T23:21:54.774Z,44.33
2022-08-24T23:24:23.066Z,56.50
2022-08-24T23:26:50.983Z,50.53
2022-08-24T23:29:18.980Z,47.00
2022-08-24T23:31:48.766Z,57.72
2022-08-24T23:34:17.397Z,47.83
2022-08-24T23:36:45.961Z,56.05
2022-08-24T23:39:14.407Z,52.65
2022-08-24T23:41:44.202Z,53.25
2022-08-24T23:44:16.260Z,47.80
2022-08-24T23:46:45.258Z,36.38
2022-08-24T23:49:16.743Z,53.97
2022-08-24T23:51:44.289Z,58.20
2022-08-24T23:54:12.319Z,64.43
2022-08-24T23:56:43.166Z,56.08
2022-08-24T23:59:13.815Z,51.38
